createdAt,value
2023-03-29T00:00:15.177Z,87.4
2023-03-29T00:05:15.117Z,87.6
2023-03-29T00:10:15.114Z,87.7
2023-03-29T00:15:15.130Z,87.8
2023-03-29T00:20:15.139Z,87.7
2023-03-29T00:25:15.117Z,87.8
2023-03-29T00:30:15.198Z,88.0
2023-03-29T00:35:15.127Z,88.0
2023-03-29T00:40:15.124Z,88.0
2023-03-29T00:45:15.135Z,88.1
2023-03-29T00:50:15.149Z,88.0
2023-03-29T00:55:15.135Z,88.2
2023-03-29T01:00:15.173Z,88.2
2023-03-29T01:05:15.149Z,88.1
2023-03-29T01:10:15.166Z,87.9
2023-03-29T01:15:15.170Z,87.8
2023-03-29T01:20:15.161Z,87.9
2023-03-29T01:25:15.159Z,87.6
2023-03-29T01:30:15.188Z,87.6
2023-03-29T01:35:15.161Z,87.7
2023-03-29T01:40:15.184Z,87.8
2023-03-29T01:45:15.180Z,87.5
2023-03-29T01:50:15.200Z,87.5
2023-03-29T01:55:15.174Z,87.1
2023-03-29T02:00:15.247Z,86.9
2023-03-29T02:05:15.193Z,86.4
2023-03-29T02:10:15.210Z,86.1
2023-03-29T02:15:15.196Z,85.6
2023-03-29T02:20:15.199Z,85.3
2023-03-29T02:25:15.186Z,85.3
2023-03-29T02:30:15.270Z,84.6
2023-03-29T02:35:15.195Z,84.5
2023-03-29T02:40:15.221Z,84.6
2023-03-29T02:45:15.213Z,84.2
2023-03-29T02:50:15.232Z,84.2
2023-03-29T02:55:15.208Z,84.0
2023-03-29T03:00:15.265Z,84.0
2023-03-29T03:05:15.248Z,85.3
2023-03-29T03:10:15.235Z,87.1
2023-03-29T03:15:15.226Z,88.3
2023-03-29T03:20:15.250Z,89.2
2023-03-29T03:25:15.227Z,90.2
2023-03-29T03:30:15.301Z,90.9
2023-03-29T03:35:15.268Z,91.6
2023-03-29T03:40:15.249Z,91.9
2023-03-29T03:45:15.255Z,92.3
2023-03-29T03:50:15.258Z,92.7
2023-03-29T03:55:15.244Z,92.9
2023-03-29T04:00:15.264Z,93.1
2023-03-29T04:05:15.253Z,93.3
2023-03-29T04:10:15.246Z,93.7
2023-03-29T04:15:15.251Z,93.7
2023-03-29T04:20:15.266Z,93.9
2023-03-29T04:25:15.256Z,93.8
2023-03-29T04:30:15.289Z,93.8
2023-03-29T04:35:15.268Z,93.7
2023-03-29T04:40:15.273Z,93.5
2023-03-29T04:45:15.377Z,93.3
2023-03-29T04:50:15.298Z,93.3
2023-03-29T04:55:15.299Z,93.0
2023-03-29T05:00:15.454Z,92.8
2023-03-29T05:05:15.289Z,92.8
2023-03-29T05:10:15.282Z,92.6
2023-03-29T05:15:15.305Z,92.3
2023-03-29T05:20:15.302Z,91.9
2023-03-29T05:25:15.291Z,91.6
2023-03-29T05:30:15.367Z,91.4
2023-03-29T05:35:15.306Z,91.0
2023-03-29T05:40:15.319Z,90.9
2023-03-29T05:45:15.342Z,90.5
2023-03-29T05:50:15.326Z,90.2
2023-03-29T05:55:15.302Z,89.9
2023-03-29T06:00:15.347Z,89.5
2023-03-29T06:05:15.315Z,89.3
2023-03-29T06:10:15.327Z,89.1
2023-03-29T06:15:15.331Z,88.7
2023-03-29T06:20:15.332Z,88.5
2023-03-29T06:25:15.353Z,88.5
2023-03-29T06:30:15.346Z,88.2
2023-03-29T06:35:15.328Z,87.8
2023-03-29T06:40:15.334Z,87.3
2023-03-29T06:45:15.335Z,87.2
2023-03-29T06:50:15.357Z,86.5
2023-03-29T06:55:15.350Z,85.9
2023-03-29T07:00:15.595Z,85.8
2023-03-29T07:05:15.344Z,84.9
2023-03-29T07:10:15.352Z,84.4
2023-03-29T07:15:15.357Z,83.6
2023-03-29T07:20:15.373Z,83.0
2023-03-29T07:25:15.364Z,81.3
2023-03-29T07:30:15.379Z,81.1
2023-03-29T07:35:15.365Z,81.0
2023-03-29T07:40:15.372Z,80.3
2023-03-29T07:45:15.381Z,81.0
2023-03-29T07:50:15.385Z,81.2
2023-03-29T07:55:15.381Z,80.8
2023-03-29T08:00:15.447Z,80.1
2023-03-29T08:05:19.008Z,79.6
2023-03-29T08:10:15.402Z,80.5
2023-03-29T08:15:15.408Z,80.3
2023-03-29T08:20:15.439Z,79.3
2023-03-29T08:25:15.394Z,79.3
2023-03-29T08:30:15.505Z,79.3
2023-03-29T08:35:15.419Z,79.1
2023-03-29T08:40:15.404Z,78.6
2023-03-29T08:45:15.406Z,77.9
2023-03-29T08:50:15.416Z,76.4
2023-03-29T08:55:15.410Z,74.8
2023-03-29T09:00:15.435Z,75.9
2023-03-29T09:05:15.425Z,76.2
2023-03-29T09:10:15.425Z,76.4
2023-03-29T09:15:15.497Z,76.9
2023-03-29T09:20:15.438Z,76.5
2023-03-29T09:25:15.437Z,75.1
2023-03-29T09:30:15.445Z,75.4
2023-03-29T09:35:15.453Z,74.2
2023-03-29T09:40:15.439Z,74.5
2023-03-29T09:45:15.446Z,75.1
2023-03-29T09:50:27.796Z,74.7
2023-03-29T09:55:15.450Z,74.8
2023-03-29T10:00:15.476Z,75.5
2023-03-29T10:05:15.467Z,74.9
2023-03-29T10:10:15.492Z,75.0
2023-03-29T10:15:26.735Z,74.8
2023-03-29T10:20:15.515Z,72.3
2023-03-29T10:25:15.465Z,73.9
2023-03-29T10:30:15.510Z,73.4
2023-03-29T10:35:15.472Z,73.2
2023-03-29T10:40:15.477Z,74.1
2023-03-29T10:45:15.483Z,73.5
2023-03-29T10:50:15.508Z,70.8
2023-03-29T10:55:15.481Z,72.5
2023-03-29T11:00:15.533Z,70.9
2023-03-29T11:05:15.494Z,71.5
2023-03-29T11:10:15.504Z,71.5
2023-03-29T11:15:15.500Z,72.5
2023-03-29T11:20:15.515Z,73.1
2023-03-29T11:25:15.503Z,72.6
2023-03-29T11:30:15.532Z,72.6
2023-03-29T11:35:15.520Z,72.2
2023-03-29T11:40:15.519Z,70.2
2023-03-29T11:45:15.518Z,71.9
2023-03-29T11:50:15.552Z,72.0
2023-03-29T11:55:15.523Z,71.7
2023-03-29T12:00:15.552Z,72.6
2023-03-29T12:05:15.534Z,73.7
2023-03-29T12:10:15.535Z,72.6
2023-03-29T12:15:15.534Z,73.1
2023-03-29T12:20:15.545Z,74.3
2023-03-29T12:25:16.764Z,75.8
2023-03-29T12:30:15.562Z,76.8
2023-03-29T12:35:15.548Z,79.5
2023-03-29T12:40:15.611Z,79.3
2023-03-29T12:45:15.559Z,77.6
2023-03-29T12:50:15.566Z,76.0
2023-03-29T12:55:15.560Z,77.1
2023-03-29T13:00:15.586Z,78.4
2023-03-29T13:05:15.595Z,78.4
2023-03-29T13:10:15.574Z,78.4
2023-03-29T13:15:15.584Z,79.5
2023-03-29T13:20:15.584Z,78.8
2023-03-29T13:25:15.585Z,78.9
2023-03-29T13:30:15.648Z,79.1
2023-03-29T13:35:15.597Z,80.8
2023-03-29T13:40:15.592Z,81.8
2023-03-29T13:45:15.600Z,82.6
2023-03-29T13:50:15.610Z,80.9
2023-03-29T13:55:15.608Z,80.7
2023-03-29T14:00:15.653Z,80.8
2023-03-29T14:05:15.605Z,80.5
2023-03-29T14:10:15.616Z,80.8
2023-03-29T14:15:15.622Z,79.2
2023-03-29T14:20:15.630Z,79.1
2023-03-29T14:25:15.637Z,79.3
2023-03-29T14:30:15.648Z,78.6
2023-03-29T14:35:15.613Z,80.1
2023-03-29T14:40:15.632Z,80.9
2023-03-29T14:45:15.627Z,81.0
2023-03-29T14:50:15.634Z,80.4
2023-03-29T14:55:15.637Z,80.0
2023-03-29T15:00:15.660Z,80.8
2023-03-29T15:05:15.639Z,80.0
2023-03-29T15:10:15.648Z,81.0
2023-03-29T15:15:15.650Z,80.5
2023-03-29T15:20:15.667Z,79.2
2023-03-29T15:25:15.659Z,79.9
2023-03-29T15:30:15.685Z,80.2
2023-03-29T15:35:15.659Z,79.9
2023-03-29T15:40:16.361Z,79.8
2023-03-29T15:45:15.678Z,80.4
2023-03-29T15:50:15.683Z,80.5
2023-03-29T15:55:15.695Z,80.9
2023-03-29T16:00:15.687Z,80.9
2023-03-29T16:05:15.689Z,81.1
2023-03-29T16:10:15.680Z,81.3
2023-03-29T16:15:15.684Z,81.5
2023-03-29T16:20:15.699Z,82.3
2023-03-29T16:25:15.696Z,82.2
2023-03-29T16:30:15.709Z,81.9
2023-03-29T16:35:15.698Z,83.0
2023-03-29T16:40:15.718Z,83.2
2023-03-29T16:45:15.699Z,83.1
2023-03-29T16:50:15.741Z,83.5
2023-03-29T16:55:15.707Z,83.7
2023-03-29T17:00:15.733Z,84.2
2023-03-29T17:05:15.713Z,84.1
2023-03-29T17:10:15.741Z,84.5
2023-03-29T17:15:15.717Z,84.9
2023-03-29T17:20:15.724Z,84.8
2023-03-29T17:25:15.728Z,85.1
2023-03-29T17:30:15.748Z,85.4
2023-03-29T17:35:15.732Z,85.8
2023-03-29T17:40:15.750Z,85.3
2023-03-29T17:45:15.725Z,85.3
2023-03-29T17:50:15.745Z,85.6
2023-03-29T17:55:15.733Z,85.7
2023-03-29T18:00:15.770Z,86.0
2023-03-29T18:05:15.748Z,86.3
2023-03-29T18:10:15.749Z,86.8
2023-03-29T18:15:15.776Z,86.5
2023-03-29T18:20:16.802Z,86.6
2023-03-29T18:25:15.762Z,87.0
2023-03-29T18:30:15.783Z,87.4
2023-03-29T18:35:15.782Z,87.1
2023-03-29T18:40:15.798Z,86.9
2023-03-29T18:45:15.775Z,87.3
2023-03-29T18:50:15.785Z,87.7
2023-03-29T18:55:15.889Z,87.9
2023-03-29T19:00:15.813Z,88.5
2023-03-29T19:05:15.793Z,89.1
2023-03-29T19:10:15.790Z,89.5
2023-03-29T19:15:15.795Z,90.0
2023-03-29T19:20:15.800Z,90.1
2023-03-29T19:25:15.810Z,90.1
2023-03-29T19:30:15.829Z,90.4
2023-03-29T19:35:15.814Z,90.6
2023-03-29T19:40:15.810Z,91.3
2023-03-29T19:45:15.808Z,91.4
2023-03-29T19:50:15.820Z,91.6
2023-03-29T19:55:15.821Z,91.8
2023-03-29T20:00:15.836Z,92.3
2023-03-29T20:05:15.809Z,92.7
2023-03-29T20:10:15.827Z,92.5
2023-03-29T20:15:15.845Z,92.9
2023-03-29T20:20:15.838Z,93.5
2023-03-29T20:25:15.845Z,93.8
2023-03-29T20:30:15.848Z,93.8
2023-03-29T20:35:15.842Z,94.1
2023-03-29T20:40:15.849Z,94.5
2023-03-29T20:45:15.849Z,95.0
2023-03-29T20:50:15.846Z,95.7
2023-03-29T20:55:15.906Z,96.1
2023-03-29T21:00:15.891Z,96.6
2023-03-29T21:05:15.868Z,96.7
2023-03-29T21:10:15.865Z,97.0
2023-03-29T21:15:15.862Z,97.6
2023-03-29T21:20:15.896Z,97.6
2023-03-29T21:25:15.931Z,97.8
2023-03-29T21:30:15.896Z,97.9
2023-03-29T21:35:15.878Z,97.4
2023-03-29T21:40:15.877Z,97.5
2023-03-29T21:45:15.879Z,97.4
2023-03-29T21:50:15.885Z,97.2
2023-03-29T21:55:15.921Z,96.2
2023-03-29T22:00:15.932Z,96.1
2023-03-29T22:05:15.894Z,96.0
2023-03-29T22:10:15.926Z,97.1
2023-03-29T22:15:15.916Z,97.4
2023-03-29T22:20:15.925Z,97.6
2023-03-29T22:25:15.921Z,96.7
2023-03-29T22:30:15.941Z,97.1
2023-03-29T22:35:15.920Z,96.7
2023-03-29T22:40:15.916Z,96.5
2023-03-29T22:45:15.914Z,95.9
2023-03-29T22:50:15.931Z,94.5
2023-03-29T22:55:15.944Z,93.8
2023-03-29T23:00:15.968Z,94.3
2023-03-29T23:05:15.937Z,94.7
2023-03-29T23:10:15.926Z,94.6
2023-03-29T23:15:15.936Z,94.5
2023-03-29T23:20:15.929Z,92.6
2023-03-29T23:25:15.946Z,90.6
2023-03-29T23:30:15.958Z,87.8
2023-03-29T23:35:15.943Z,85.9
2023-03-29T23:40:15.943Z,85.5
2023-03-29T23:45:15.952Z,85.1
2023-03-29T23:50:15.960Z,83.6
2023-03-29T23:55:16.022Z,82.5
